Time;durP1;ratioP1;P1;durP2;ratioP2;P2;SDS_P1;SDS_P2;PMS_P1;PMS_P2;Temp;Humidity;BMP_temperature;BMP_pressure;BME280_temperature;BME280_humidity;BME280_pressure;Samples;Min_cycle;Max_cycle;Signal;HPM_P1;HPM_P2
2021/12/17 00:01:05;;;;;;;30.17;10.43;;;;;;;4.21;82.50;100109.46;2123172;84;20997;-83
2021/12/17 00:04:24;;;;;;;27.70;9.17;;;;;;;4.20;82.39;100114.14;2123040;84;21353;-82
2021/12/17 00:07:08;;;;;;;23.50;9.70;;;;;;;4.19;82.68;100119.22;2115576;84;21057;-83
2021/12/17 00:10:09;;;;;;;26.27;10.00;;;;;;;4.18;82.58;100117.04;2128845;84;21001;-82
2021/12/17 00:13:09;;;;;;;28.13;9.83;;;;;;;4.20;82.61;100124.87;2128620;84;20977;-82
2021/12/17 00:16:17;;;;;;;19.63;9.10;;;;;;;4.19;82.45;100128.27;2128892;83;20977;-82
2021/12/17 00:48:50;;;;;;;29.00;10.00;;;;;;;4.08;82.89;100149.61;2128183;83;20964;-82
2021/12/17 00:51:56;;;;;;;29.10;10.20;;;;;;;4.08;83.11;100135.41;2128652;83;20976;-82
2021/12/17 00:54:53;;;;;;;27.70;10.53;;;;;;;4.07;83.12;100131.92;2127979;84;21032;-83
2021/12/17 00:57:54;;;;;;;23.67;10.67;;;;;;;4.06;82.97;100119.81;2128798;84;20945;-82
2021/12/17 01:00:54;;;;;;;36.60;15.90;;;;;;;4.06;83.00;100118.92;2128667;84;20980;-82
2021/12/17 01:03:55;;;;;;;34.57;12.93;;;;;;;4.03;82.91;100124.80;2128753;84;20992;-82
2021/12/17 01:06:55;;;;;;;28.63;11.10;;;;;;;3.99;82.67;100128.02;2128613;83;21532;-82
2021/12/17 01:09:56;;;;;;;23.43;11.03;;;;;;;4.00;82.81;100126.32;2128904;84;20937;-81
2021/12/17 01:12:56;;;;;;;21.77;10.13;;;;;;;3.98;82.91;100128.81;2128279;83;20985;-81
2021/12/17 01:15:57;;;;;;;25.40;10.07;;;;;;;3.98;83.15;100122.35;2128172;84;20956;-82
2021/12/17 01:19:13;;;;;;;45.50;13.10;;;;;;;3.97;83.26;100124.45;2128776;83;21008;-81
2021/12/17 01:25:39;;;;;;;24.23;10.40;;;;;;;3.95;83.43;100120.89;2100306;84;21026;-81
2021/12/17 01:44:56;;;;;;;23.43;7.73;;;;;;;3.88;82.38;100144.58;2128598;83;21376;-81
2021/12/17 01:48:00;;;;;;;37.23;8.90;;;;;;;3.88;82.48;100152.73;2128368;83;21040;-81
2021/12/17 02:00:43;;;;;;;18.93;6.07;;;;;;;3.81;81.06;100143.33;2100582;84;21028;-81
2021/12/17 02:03:43;;;;;;;17.30;6.03;;;;;;;3.81;81.40;100157.93;2128657;83;20945;-82
2021/12/17 02:06:44;;;;;;;21.63;6.63;;;;;;;3.79;81.01;100156.55;2128516;83;20996;-82
2021/12/17 02:23:10;;;;;;;21.67;5.77;;;;;;;3.76;81.37;100143.45;2128951;83;20988;-82
2021/12/17 02:29:30;;;;;;;25.93;8.90;;;;;;;3.73;81.01;100136.81;2129063;83;21028;-82
2021/12/17 02:32:14;;;;;;;19.30;5.93;;;;;;;3.72;81.00;100149.23;2125417;84;21388;-81
2021/12/17 02:38:17;;;;;;;28.93;5.57;;;;;;;3.71;81.17;100136.23;2100711;84;21051;-83
2021/12/17 02:47:55;;;;;;;18.73;5.43;;;;;;;3.71;80.55;100129.78;2128547;83;21122;-82
2021/12/17 02:50:56;;;;;;;20.77;5.37;;;;;;;3.70;80.80;100127.59;2127827;83;20961;-81
2021/12/17 02:53:56;;;;;;;16.67;4.60;;;;;;;3.71;80.79;100127.20;2128157;83;21431;-82
2021/12/17 02:56:57;;;;;;;24.73;5.60;;;;;;;3.73;80.11;100121.33;2128054;83;20968;-81
2021/12/17 02:59:58;;;;;;;21.60;5.53;;;;;;;3.74;79.85;100128.67;2128086;84;20992;-83
2021/12/17 03:03:17;;;;;;;21.27;5.13;;;;;;;3.75;79.83;100127.47;2128489;84;21000;-82
2021/12/17 03:06:17;;;;;;;19.57;4.70;;;;;;;3.76;79.99;100120.61;2128374;84;20992;-82
2021/12/17 03:09:24;;;;;;;17.90;4.30;;;;;;;3.75;79.81;100115.84;2133713;83;21047;-80
2021/12/17 03:12:28;;;;;;;26.83;5.23;;;;;;;3.73;79.84;100112.69;2133786;83;21028;-81
2021/12/17 03:24:58;;;;;;;26.42;7.03;;;;;;;3.73;79.50;100101.95;2105049;83;21023;-80
2021/12/17 03:27:59;;;;;;;25.03;5.67;;;;;;;3.73;79.74;100110.99;2135092;83;20976;-81
2021/12/17 03:30:59;;;;;;;26.17;6.20;;;;;;;3.72;79.92;100114.78;2134470;83;20952;-80
2021/12/17 03:37:14;;;;;;;28.23;6.58;;;;;;;3.71;79.88;100124.61;2109059;83;21084;-80
2021/12/17 03:40:17;;;;;;;30.03;7.03;;;;;;;3.70;79.76;100105.65;2135310;83;21016;-81
2021/12/17 03:43:23;;;;;;;24.63;5.80;;;;;;;3.68;79.60;100109.83;2135466;83;21401;-82
2021/12/17 03:46:19;;;;;;;23.57;4.90;;;;;;;3.65;79.34;100105.78;2108380;83;21002;-83
2021/12/17 03:49:22;;;;;;;24.67;6.47;;;;;;;3.65;79.07;100108.36;2135409;83;20944;-82
2021/12/17 03:52:22;;;;;;;33.80;7.33;;;;;;;3.64;79.56;100110.45;2134979;83;20953;-81
2021/12/17 03:55:23;;;;;;;33.30;9.30;;;;;;;3.64;79.32;100102.70;2135020;83;21020;-83
2021/12/17 03:58:23;;;;;;;30.00;8.17;;;;;;;3.64;79.43;100099.23;2135539;83;21029;-82
2021/12/17 04:01:25;;;;;;;26.97;6.53;;;;;;;3.62;79.58;100096.96;2135303;83;20933;-82
2021/12/17 04:04:26;;;;;;;27.23;6.33;;;;;;;3.62;79.19;100101.72;2135417;83;21060;-81
2021/12/17 04:07:26;;;;;;;23.80;5.60;;;;;;;3.62;79.41;100093.98;2136105;82;21487;-82
2021/12/17 04:10:29;;;;;;;24.37;6.87;;;;;;;3.63;79.36;100091.89;2139252;83;20953;-81
2021/12/17 04:13:35;;;;;;;23.57;6.07;;;;;;;3.62;79.54;100073.72;2139038;83;21015;-82
2021/12/17 04:16:33;;;;;;;23.87;6.40;;;;;;;3.64;79.39;100078.58;2138210;83;21462;-82
2021/12/17 04:19:33;;;;;;;30.70;6.57;;;;;;;3.64;79.50;100066.95;2139117;83;21383;-82
2021/12/17 04:22:37;;;;;;;27.23;6.37;;;;;;;3.64;79.55;100068.25;2145117;83;20963;-82
2021/12/17 04:25:37;;;;;;;25.60;6.23;;;;;;;3.64;79.32;100076.89;2145074;83;20982;-79
2021/12/17 04:28:43;;;;;;;21.40;5.33;;;;;;;3.65;79.46;100075.19;2144934;83;20984;-78
2021/12/17 04:31:40;;;;;;;25.60;6.23;;;;;;;3.65;79.44;100068.34;2144674;83;21031;-82
2021/12/17 04:34:40;;;;;;;27.13;5.77;;;;;;;3.66;79.43;100075.69;2145009;83;20991;-83
2021/12/17 04:37:41;;;;;;;23.13;6.30;;;;;;;3.68;79.46;100078.84;2145169;83;20963;-83
2021/12/17 04:40:43;;;;;;;22.33;5.97;;;;;;;3.69;79.30;100075.86;2145182;83;20975;-82
2021/12/17 04:43:58;;;;;;;23.27;6.30;;;;;;;3.69;79.42;100065.53;2145278;83;21016;-81
2021/12/17 05:00:04;;;;;;;19.17;5.63;;;;;;;3.62;79.78;100066.87;2144209;83;21051;-82
2021/12/17 05:03:04;;;;;;;21.30;6.53;;;;;;;3.61;79.87;100075.41;2144277;83;21023;-83
2021/12/17 05:06:04;;;;;;;18.43;5.00;;;;;;;3.60;79.90;100069.77;2144172;83;20956;-81
2021/12/17 05:09:23;;;;;;;29.63;6.20;;;;;;;3.60;79.99;100071.05;2134777;83;20984;-82
2021/12/17 05:19:00;;;;;;;23.97;5.17;;;;;;;3.54;79.91;100060.36;2173454;82;21032;-81
2021/12/17 05:21:53;;;;;;;22.17;5.40;;;;;;;3.52;79.51;100074.87;2127026;84;20975;-82
2021/12/17 05:24:53;;;;;;;23.37;5.60;;;;;;;3.52;79.52;100078.75;2128314;84;20991;-81
2021/12/17 05:28:12;;;;;;;19.67;5.50;;;;;;;3.50;79.53;100074.78;2127947;84;21075;-82
2021/12/17 05:31:14;;;;;;;28.53;5.70;;;;;;;3.51;79.83;100083.42;2127479;84;21368;-82
2021/12/17 05:34:15;;;;;;;24.37;5.73;;;;;;;3.51;79.70;100074.38;2127551;84;21019;-82
2021/12/17 05:37:15;;;;;;;24.43;4.63;;;;;;;3.50;79.57;100072.60;2128322;84;20948;-81
2021/12/17 05:40:16;;;;;;;28.20;7.13;;;;;;;3.51;79.61;100073.09;2128016;84;20971;-82
2021/12/17 05:43:17;;;;;;;21.50;5.70;;;;;;;3.51;79.61;100084.71;2127586;84;21003;-81
2021/12/17 05:46:23;;;;;;;26.70;5.40;;;;;;;3.50;79.64;100082.93;2127800;84;20980;-81
2021/12/17 05:49:26;;;;;;;22.13;6.00;;;;;;;3.49;79.56;100082.04;2170807;81;21708;-82
2021/12/17 05:52:27;;;;;;;17.53;5.37;;;;;;;3.48;79.47;100088.00;2172345;82;21339;-83
2021/12/17 05:55:27;;;;;;;20.83;6.37;;;;;;;3.47;79.64;100078.47;2172119;82;20996;-84
2021/12/17 05:58:28;;;;;;;25.40;6.93;;;;;;;3.45;79.69;100089.48;2172174;82;20942;-82
2021/12/17 06:01:29;;;;;;;26.20;7.90;;;;;;;3.44;79.80;100083.82;2172232;82;20952;-82
2021/12/17 06:04:29;;;;;;;30.00;7.90;;;;;;;3.43;79.77;100092.36;2172120;82;20953;-82
2021/12/17 06:07:30;;;;;;;32.30;7.43;;;;;;;3.43;79.79;100086.80;2171799;81;20984;-83
2021/12/17 06:10:30;;;;;;;24.17;7.00;;;;;;;3.44;79.82;100092.86;2172172;82;21016;-85
2021/12/17 06:13:31;;;;;;;20.10;6.47;;;;;;;3.42;79.77;100100.91;2172666;81;20968;-83
2021/12/17 06:16:33;;;;;;;25.37;7.13;;;;;;;3.41;79.81;100109.05;2172492;82;21372;-84
2021/12/17 06:19:33;;;;;;;21.37;5.17;;;;;;;3.40;79.54;100105.98;2172087;81;21028;-80
2021/12/17 06:22:34;;;;;;;22.60;5.40;;;;;;;3.40;79.21;100106.38;2171755;81;20916;-78
2021/12/17 06:25:34;;;;;;;16.90;5.20;;;;;;;3.41;79.48;100100.42;2171805;81;21039;-80
2021/12/17 06:28:35;;;;;;;20.30;5.23;;;;;;;3.42;79.16;100099.61;2171471;81;20964;-81
2021/12/17 06:31:35;;;;;;;14.13;4.80;;;;;;;3.40;78.78;100107.67;2171665;81;21313;-82
2021/12/17 06:34:36;;;;;;;19.30;5.03;;;;;;;3.39;78.89;100103.30;2171922;81;20928;-80
2021/12/17 06:37:39;;;;;;;22.13;5.80;;;;;;;3.38;78.95;100109.27;2171928;81;20960;-80
2021/12/17 06:40:39;;;;;;;23.90;7.77;;;;;;;3.38;78.85;100108.87;2171922;81;20988;-81
2021/12/17 06:43:42;;;;;;;22.40;6.07;;;;;;;3.38;78.84;100106.69;2172154;81;20993;-80
2021/12/17 06:46:56;;;;;;;28.40;5.20;;;;;;;3.39;78.74;100108.47;2126633;83;20992;-80
2021/12/17 06:49:57;;;;;;;16.13;4.97;;;;;;;3.36;78.61;100104.02;2170369;81;20980;-81
2021/12/17 06:56:56;;;;;;;21.07;6.43;;;;;;;3.34;78.44;100096.58;2126498;84;20951;-81
2021/12/17 07:00:10;;;;;;;20.90;5.63;;;;;;;3.33;78.61;100101.65;2168962;82;20964;-80
2021/12/17 07:06:09;;;;;;;25.27;7.67;;;;;;;3.31;78.79;100089.05;2127043;84;20979;-81
2021/12/17 07:41:31;;;;;;;22.17;4.93;;;;;;;3.38;78.09;100096.36;2142976;83;20959;-80
2021/12/17 07:44:31;;;;;;;36.53;8.60;;;;;;;3.40;78.34;100100.81;2143087;83;21387;-80
2021/12/17 07:47:32;;;;;;;19.27;6.17;;;;;;;3.43;78.34;100094.55;2143574;83;21030;-81
2021/12/17 07:50:32;;;;;;;31.97;8.10;;;;;;;3.46;78.10;100105.45;2143275;83;21003;-81
2021/12/17 07:53:34;;;;;;;21.50;5.83;;;;;;;3.47;78.17;100105.58;2144062;83;21018;-81
2021/12/17 07:56:38;;;;;;;20.33;7.03;;;;;;;3.48;78.28;100097.03;2143278;83;20904;-81
2021/12/17 07:59:39;;;;;;;27.05;6.53;;;;;;;3.52;78.30;100101.98;2142322;83;21023;-81
2021/12/17 08:02:40;;;;;;;29.27;7.03;;;;;;;3.54;78.28;100104.25;2142590;83;20920;-81
2021/12/17 08:05:42;;;;;;;20.17;6.30;;;;;;;3.57;78.04;100110.89;2142584;83;20967;-80
2021/12/17 08:08:43;;;;;;;34.37;8.37;;;;;;;3.58;78.01;100110.09;2139343;83;21000;-80
2021/12/17 08:11:43;;;;;;;30.40;7.77;;;;;;;3.61;78.32;100111.96;2126052;84;20924;-80
2021/12/17 08:14:44;;;;;;;24.93;6.90;;;;;;;3.65;77.91;100110.94;2125797;84;21011;-81
2021/12/17 08:18:07;;;;;;;25.73;7.10;;;;;;;3.67;77.64;100125.23;2125835;84;21336;-80
2021/12/17 08:30:41;;;;;;;25.97;7.80;;;;;;;3.75;77.57;100133.92;2127428;84;21063;-81
2021/12/17 08:33:47;;;;;;;25.33;7.53;;;;;;;3.74;77.67;100139.00;2126952;84;20971;-80
2021/12/17 08:36:47;;;;;;;36.67;10.23;;;;;;;3.75;77.59;100148.13;2126266;84;20959;-82
2021/12/17 08:39:48;;;;;;;25.33;6.47;;;;;;;3.74;77.91;100147.64;2171442;82;20968;-82
2021/12/17 08:42:48;;;;;;;20.03;5.87;;;;;;;3.76;77.79;100155.48;2172256;81;20992;-82
2021/12/17 08:45:49;;;;;;;23.60;5.50;;;;;;;3.75;77.73;100157.17;2171723;81;21016;-82
2021/12/17 08:48:49;;;;;;;22.30;5.87;;;;;;;3.76;77.45;100168.39;2172423;81;21012;-82
2021/12/17 08:51:50;;;;;;;21.40;7.07;;;;;;;3.78;77.20;100158.64;2172227;82;20992;-82
2021/12/17 08:54:51;;;;;;;15.50;5.70;;;;;;;3.80;77.36;100157.04;2172654;82;20981;-81
2021/12/17 08:57:51;;;;;;;22.70;7.40;;;;;;;3.81;76.29;100152.77;2172363;82;21076;-81
2021/12/17 09:00:52;;;;;;;24.67;6.87;;;;;;;3.77;76.46;100152.98;2171154;81;20963;-81
2021/12/17 09:03:52;;;;;;;21.53;6.20;;;;;;;3.76;76.93;100147.33;2171896;82;20933;-80
2021/12/17 09:06:53;;;;;;;21.30;6.10;;;;;;;3.78;77.11;100143.15;2171743;82;20988;-81
2021/12/17 09:09:56;;;;;;;20.70;6.80;;;;;;;3.82;76.43;100149.38;2170521;82;20980;-81
2021/12/17 09:12:57;;;;;;;24.50;6.70;;;;;;;3.85;76.94;100146.98;2171496;81;20948;-81
2021/12/17 09:15:57;;;;;;;18.27;5.60;;;;;;;3.88;76.79;100151.44;2171725;82;20951;-81
2021/12/17 09:18:58;;;;;;;19.13;5.93;;;;;;;3.89;76.67;100138.61;2171254;81;21340;-82
2021/12/17 09:21:59;;;;;;;21.23;5.87;;;;;;;3.88;76.89;100140.70;2171155;81;20996;-80
2021/12/17 09:24:59;;;;;;;23.77;5.77;;;;;;;3.92;76.99;100139.19;2171342;82;20945;-81
2021/12/17 09:27:59;;;;;;;24.63;8.50;;;;;;;3.93;76.54;100137.09;2170702;81;20944;-81
2021/12/17 09:34:02;;;;;;;19.23;5.30;;;;;;;3.96;76.19;100145.03;2161167;82;20932;-81
2021/12/17 09:37:03;;;;;;;16.03;5.87;;;;;;;3.96;75.72;100150.20;2171588;82;20987;-81
2021/12/17 09:40:06;;;;;;;20.83;5.93;;;;;;;3.95;76.03;100137.67;2172763;81;21359;-79
2021/12/17 09:43:06;;;;;;;22.87;6.60;;;;;;;3.91;75.83;100133.13;2128465;83;21734;-81
2021/12/17 09:46:07;;;;;;;21.43;5.93;;;;;;;3.91;76.18;100130.95;2127735;84;20984;-81
2021/12/17 09:49:07;;;;;;;24.40;6.53;;;;;;;3.92;76.50;100143.95;2128215;84;20940;-81
2021/12/17 09:52:10;;;;;;;24.23;6.70;;;;;;;3.90;76.30;100144.67;2106142;84;21015;-81
2021/12/17 09:55:10;;;;;;;23.17;6.40;;;;;;;3.89;76.54;100129.57;2127923;84;20991;-81
2021/12/17 09:58:11;;;;;;;25.80;6.43;;;;;;;3.90;76.95;100117.55;2127685;84;20984;-81
2021/12/17 10:01:11;;;;;;;27.37;7.53;;;;;;;3.98;76.54;100123.65;2128043;84;20991;-82
2021/12/17 10:04:12;;;;;;;29.83;7.23;;;;;;;4.00;76.33;100113.00;2128433;84;20967;-81
2021/12/17 10:07:12;;;;;;;25.07;7.70;;;;;;;4.03;76.15;100113.58;2127101;84;20979;-81
2021/12/17 10:10:15;;;;;;;34.07;10.23;;;;;;;4.03;75.98;100108.41;2127468;83;20983;-80
2021/12/17 10:13:16;;;;;;;23.03;6.77;;;;;;;4.06;75.61;100099.55;2172533;81;21423;-80
2021/12/17 10:16:16;;;;;;;18.47;6.03;;;;;;;4.12;75.73;100098.20;2172007;82;21400;-79
2021/12/17 10:19:17;;;;;;;18.40;5.53;;;;;;;4.15;75.89;100102.25;2171883;81;20965;-80
2021/12/17 10:22:17;;;;;;;25.90;6.03;;;;;;;4.14;75.54;100094.41;2171956;81;21623;-80
2021/12/17 10:25:18;;;;;;;21.47;5.90;;;;;;;4.18;75.25;100096.37;2171865;81;20999;-80
2021/12/17 10:28:18;;;;;;;23.70;6.10;;;;;;;4.24;75.23;100100.59;2172281;82;21413;-80
2021/12/17 10:31:19;;;;;;;27.83;7.67;;;;;;;4.32;75.17;100094.16;2172346;81;21020;-80
2021/12/17 10:34:20;;;;;;;24.77;7.57;;;;;;;4.36;75.22;100091.37;2171654;81;20952;-80
2021/12/17 10:37:20;;;;;;;20.20;6.80;;;;;;;4.35;74.85;100098.64;2171590;82;20940;-80
2021/12/17 10:40:21;;;;;;;21.40;6.47;;;;;;;4.32;75.04;100104.90;2172630;81;20953;-80
2021/12/17 10:43:27;;;;;;;18.77;6.10;;;;;;;4.26;74.65;100093.81;2171846;82;20972;-79
2021/12/17 10:46:30;;;;;;;24.53;6.67;;;;;;;4.19;74.52;100090.39;2127416;83;21007;-81
2021/12/17 10:49:29;;;;;;;31.47;6.43;;;;;;;4.17;75.05;100092.00;2172296;81;21392;-81
2021/12/17 10:52:45;;;;;;;31.17;6.93;;;;;;;4.15;75.09;100091.02;2171687;81;21055;-79
2021/12/17 10:55:32;;;;;;;18.30;6.60;;;;;;;4.12;74.87;100088.27;2124336;83;21383;-79
2021/12/17 10:58:32;;;;;;;22.80;6.50;;;;;;;4.08;75.02;100091.48;2126479;84;21040;-79
2021/12/17 11:01:33;;;;;;;22.17;6.00;;;;;;;4.05;75.03;100092.59;2126153;84;21020;-81
2021/12/17 11:04:34;;;;;;;18.43;7.10;;;;;;;3.99;75.20;100099.59;2126365;84;20952;-81
2021/12/17 11:07:34;;;;;;;22.07;6.43;;;;;;;3.93;75.50;100086.72;2126145;84;20976;-79
2021/12/17 11:10:35;;;;;;;15.90;5.43;;;;;;;3.98;75.28;100087.87;2125991;83;21449;-81
2021/12/17 11:13:35;;;;;;;22.60;5.73;;;;;;;3.94;75.46;100094.96;2125368;84;20976;-79
2021/12/17 11:16:36;;;;;;;15.77;5.27;;;;;;;3.93;74.92;100099.64;2126004;84;21035;-80
2021/12/17 11:19:36;;;;;;;22.57;6.70;;;;;;;3.93;75.15;100091.89;2126882;84;21436;-80
2021/12/17 11:22:37;;;;;;;27.73;6.90;;;;;;;3.95;74.94;100085.12;2125906;84;21383;-79
2021/12/17 11:25:37;;;;;;;15.83;5.43;;;;;;;4.00;75.10;100101.77;2127018;84;21344;-80
2021/12/17 11:28:38;;;;;;;23.77;6.10;;;;;;;4.02;74.74;100076.52;2126897;84;20960;-80
2021/12/17 11:31:38;;;;;;;22.07;6.30;;;;;;;4.04;75.05;100080.48;2127136;84;21007;-80
2021/12/17 11:34:39;;;;;;;19.63;6.70;;;;;;;4.00;75.37;100081.11;2126641;84;21616;-81
2021/12/17 11:37:42;;;;;;;23.80;6.37;;;;;;;3.96;75.43;100076.56;2160887;82;20938;-80
2021/12/17 11:40:43;;;;;;;20.43;5.90;;;;;;;3.92;75.80;100083.65;2171727;81;20971;-78
2021/12/17 11:43:51;;;;;;;19.73;5.57;;;;;;;3.92;75.95;100082.36;2171660;82;21144;-80
2021/12/17 11:46:51;;;;;;;21.90;5.93;;;;;;;3.92;75.87;100078.08;2171474;81;21501;-78
2021/12/17 11:49:52;;;;;;;24.67;6.13;;;;;;;4.00;75.17;100081.11;2171825;81;20917;-81
2021/12/17 11:52:56;;;;;;;24.03;7.00;;;;;;;4.04;75.29;100079.19;2171219;81;20997;-78
2021/12/17 11:55:55;;;;;;;27.20;7.10;;;;;;;4.11;75.49;100074.86;2126503;83;20963;-79
2021/12/17 11:58:56;;;;;;;18.90;6.13;;;;;;;4.11;75.48;100077.04;2126889;84;20948;-79
2021/12/17 12:01:59;;;;;;;25.00;6.40;;;;;;;4.08;75.62;100063.05;2126649;84;21322;-79
2021/12/17 12:04:59;;;;;;;23.20;6.97;;;;;;;4.05;75.61;100062.88;2172126;81;20951;-81
2021/12/17 12:07:59;;;;;;;21.77;7.43;;;;;;;4.03;75.56;100065.38;2172620;82;21024;-80
2021/12/17 12:11:00;;;;;;;21.00;6.00;;;;;;;3.98;75.65;100063.34;2182326;81;21011;-81
2021/12/17 12:14:01;;;;;;;15.80;5.90;;;;;;;3.96;75.99;100066.23;2188545;81;21372;-80
2021/12/17 12:17:01;;;;;;;16.57;5.87;;;;;;;3.92;76.10;100068.16;2188073;81;21032;-80
2021/12/17 12:20:02;;;;;;;23.53;5.50;;;;;;;3.89;76.09;100064.99;2188003;81;20939;-80
2021/12/17 12:23:02;;;;;;;84.77;9.00;;;;;;;3.90;76.18;100074.92;2187749;81;21011;-77
2021/12/17 12:26:03;;;;;;;21.07;6.63;;;;;;;3.87;76.23;100069.58;2187734;81;21047;-80
2021/12/17 12:29:05;;;;;;;23.97;6.00;;;;;;;3.88;76.01;100064.91;2189124;81;21301;-81
2021/12/17 12:32:05;;;;;;;22.40;5.80;;;;;;;3.87;76.19;100060.54;2189344;81;20951;-80
2021/12/17 12:35:06;;;;;;;23.23;6.20;;;;;;;3.89;75.77;100062.81;2189214;81;20968;-79
2021/12/17 12:38:09;;;;;;;30.97;6.57;;;;;;;3.88;75.41;100094.61;2188150;81;20986;-78
2021/12/17 12:41:09;;;;;;;30.47;8.63;;;;;;;3.86;75.82;100065.22;2187782;81;21431;-79
2021/12/17 12:44:10;;;;;;;15.30;5.33;;;;;;;3.86;76.00;100058.76;2188693;81;20952;-79
2021/12/17 12:47:12;;;;;;;38.87;10.30;;;;;;;3.83;76.13;100050.03;2188537;81;21035;-80
2021/12/17 12:50:13;;;;;;;22.40;6.30;;;;;;;3.81;76.15;100054.22;2188966;81;20995;-78
2021/12/17 12:53:14;;;;;;;29.37;8.87;;;;;;;3.82;76.28;100058.58;2187952;81;21011;-79
2021/12/17 12:56:14;;;;;;;22.83;6.23;;;;;;;3.80;76.27;100058.89;2188049;81;20956;-79
2021/12/17 12:59:15;;;;;;;30.70;7.37;;;;;;;3.81;76.46;100046.87;2188092;81;20995;-79
2021/12/17 13:02:15;;;;;;;21.43;6.43;;;;;;;3.81;76.43;100052.04;2188133;81;21135;-79
2021/12/17 13:05:16;;;;;;;32.00;10.27;;;;;;;3.80;76.19;100057.60;2187313;81;20948;-78
2021/12/17 13:08:16;;;;;;;17.17;5.47;;;;;;;3.80;76.23;100055.02;2187194;81;20971;-78
2021/12/17 13:11:19;;;;;;;31.07;5.50;;;;;;;3.77;75.73;100038.06;2176511;81;21775;-78
2021/12/17 13:14:23;;;;;;;16.40;5.23;;;;;;;3.78;75.97;100043.72;2126329;83;21083;-79
2021/12/17 13:17:52;;;;;;;28.10;8.00;;;;;;;3.79;75.85;100043.31;2170966;81;20980;-78
2021/12/17 13:23:31;;;;;;;25.10;6.37;;;;;;;3.79;75.98;100057.11;2160657;82;20987;-82
2021/12/17 13:26:31;;;;;;;21.17;5.27;;;;;;;3.78;75.68;100039.84;2172036;81;20977;-79
2021/12/17 13:29:33;;;;;;;19.73;5.90;;;;;;;3.76;75.51;100050.88;2172446;81;21364;-80
2021/12/17 13:32:34;;;;;;;23.53;6.50;;;;;;;3.73;75.95;100050.30;2126770;84;20983;-81
2021/12/17 13:35:38;;;;;;;16.77;6.03;;;;;;;3.73;76.08;100049.41;2126904;84;20992;-82
2021/12/17 13:38:38;;;;;;;22.70;8.73;;;;;;;3.72;75.50;100046.34;2128120;84;21336;-81
2021/12/17 13:41:39;;;;;;;17.87;6.47;;;;;;;3.70;75.39;100038.91;2128773;84;21015;-81
2021/12/17 13:44:40;;;;;;;24.17;8.07;;;;;;;3.68;75.39;100031.08;2128027;84;21343;-81
2021/12/17 13:47:40;;;;;;;16.47;6.30;;;;;;;3.67;75.54;100047.37;2127742;84;21015;-81
2021/12/17 13:50:43;;;;;;;21.60;6.87;;;;;;;3.67;75.42;100042.61;2127589;84;20955;-80
2021/12/17 13:53:43;;;;;;;24.03;8.37;;;;;;;3.65;75.22;100052.84;2171701;81;21008;-81
2021/12/17 13:56:44;;;;;;;21.27;6.23;;;;;;;3.63;75.55;100047.10;2171471;81;20917;-83
2021/12/17 13:59:44;;;;;;;18.90;7.23;;;;;;;3.61;75.65;100038.38;2172493;81;20999;-82
2021/12/17 14:02:45;;;;;;;23.57;9.47;;;;;;;3.59;75.67;100049.91;2172262;82;21348;-81
2021/12/17 14:05:51;;;;;;;24.83;9.50;;;;;;;3.58;75.81;100049.81;2173058;82;21392;-81
2021/12/17 14:08:48;;;;;;;26.07;11.17;;;;;;;3.63;75.73;100055.73;2128207;83;21079;-81
2021/12/17 14:11:49;;;;;;;30.63;9.27;;;;;;;3.57;75.48;100048.92;2185395;81;21000;-81
2021/12/17 14:14:49;;;;;;;20.53;7.57;;;;;;;3.54;75.56;100063.34;2189512;81;20940;-81
2021/12/17 14:17:50;;;;;;;24.40;9.30;;;;;;;3.49;75.43;100047.59;2187901;81;20940;-79
2021/12/17 14:20:50;;;;;;;28.47;10.23;;;;;;;3.48;75.42;100052.27;2188632;81;20913;-80
2021/12/17 14:23:51;;;;;;;25.63;9.00;;;;;;;3.45;75.80;100061.08;2188917;81;20948;-80
2021/12/17 14:26:51;;;;;;;25.93;7.70;;;;;;;3.45;75.79;100050.75;2188937;81;21287;-80
2021/12/17 14:29:51;;;;;;;28.43;7.00;;;;;;;3.43;75.88;100066.55;2188731;81;20940;-81
2021/12/17 14:32:52;;;;;;;15.80;6.37;;;;;;;3.42;75.96;100064.37;2189283;81;20952;-80
2021/12/17 14:35:53;;;;;;;18.77;6.37;;;;;;;3.41;76.25;100060.41;2189534;81;20920;-80
2021/12/17 14:38:57;;;;;;;20.53;6.33;;;;;;;3.40;76.25;100062.50;2189122;81;20921;-80
2021/12/17 14:41:59;;;;;;;27.10;8.83;;;;;;;3.41;76.02;100070.73;2142773;83;21069;-80
2021/12/17 14:44:58;;;;;;;38.00;10.73;;;;;;;3.37;76.53;100064.90;2142589;83;20975;-80
2021/12/17 14:47:59;;;;;;;27.00;7.87;;;;;;;3.38;76.53;100058.94;2120651;84;21045;-80
2021/12/17 15:04:07;;;;;;;27.57;7.90;;;;;;;3.38;77.01;100062.81;2119883;84;21717;-80
2021/12/17 15:07:08;;;;;;;25.30;8.97;;;;;;;3.37;77.07;100072.64;2119491;84;21044;-80
2021/12/17 15:10:09;;;;;;;31.83;9.63;;;;;;;3.37;77.08;100072.64;2119447;84;20941;-82
2021/12/17 15:13:09;;;;;;;46.13;14.27;;;;;;;3.36;77.13;100068.28;2126429;83;21424;-79
2021/12/17 15:16:10;;;;;;;30.27;11.60;;;;;;;3.35;77.43;100071.66;2126418;83;21396;-80
2021/12/17 15:19:10;;;;;;;33.37;11.93;;;;;;;3.35;77.37;100075.13;2126218;83;20961;-79
2021/12/17 15:22:11;;;;;;;29.17;8.73;;;;;;;3.35;77.54;100072.55;2126176;84;21153;-77
2021/12/17 15:25:11;;;;;;;21.60;8.20;;;;;;;3.35;77.47;100076.82;2125705;83;21057;-80
2021/12/17 15:28:12;;;;;;;29.80;10.83;;;;;;;3.33;77.66;100073.26;2126024;83;21459;-80
2021/12/17 15:31:13;;;;;;;29.00;8.43;;;;;;;3.34;77.76;100073.34;2126364;84;20933;-80
2021/12/17 15:34:13;;;;;;;40.73;12.73;;;;;;;3.33;77.79;100072.86;2126335;84;20976;-80
2021/12/17 15:37:14;;;;;;;42.07;12.63;;;;;;;3.34;78.00;100060.45;2127326;84;20968;-79
2021/12/17 15:40:14;;;;;;;31.00;10.27;;;;;;;3.34;77.69;100066.01;2127459;83;21359;-79
2021/12/17 15:43:15;;;;;;;29.37;12.90;;;;;;;3.34;77.91;100077.22;2127843;83;20976;-80
2021/12/17 15:46:16;;;;;;;34.17;13.07;;;;;;;3.32;78.13;100083.09;2127838;84;21008;-80
2021/12/17 15:49:16;;;;;;;35.20;10.77;;;;;;;3.34;78.19;100075.04;2127883;84;20933;-79
2021/12/17 15:52:17;;;;;;;25.43;8.80;;;;;;;3.34;78.21;100087.95;2127677;84;21423;-80
2021/12/17 15:55:17;;;;;;;38.77;11.63;;;;;;;3.34;78.24;100091.81;2127520;83;21000;-79
2021/12/17 15:58:18;;;;;;;27.83;8.70;;;;;;;3.33;78.17;100077.13;2127796;84;21024;-80
2021/12/17 16:01:18;;;;;;;31.37;10.93;;;;;;;3.33;79.10;100075.44;2128178;83;21004;-81
2021/12/17 16:04:19;;;;;;;24.07;9.97;;;;;;;3.37;78.22;100081.27;2127901;83;21309;-80
2021/12/17 16:07:19;;;;;;;40.20;18.07;;;;;;;3.36;78.06;100076.91;2127032;83;21000;-81
2021/12/17 16:11:10;;;;;;;29.43;9.73;;;;;;;3.34;78.13;100085.36;2126977;84;21008;-82
2021/12/17 16:23:36;;;;;;;29.33;11.00;;;;;;;3.31;78.12;100085.18;2128021;83;21048;-81
2021/12/17 16:26:37;;;;;;;30.53;10.83;;;;;;;3.31;78.22;100084.78;2127725;83;21028;-81
2021/12/17 16:29:37;;;;;;;39.37;13.43;;;;;;;3.31;78.01;100093.81;2127892;84;20952;-80
2021/12/17 16:32:38;;;;;;;46.13;13.87;;;;;;;3.30;78.22;100078.23;2127849;84;21081;-82
2021/12/17 16:35:39;;;;;;;24.40;9.57;;;;;;;3.30;78.07;100092.43;2127713;83;21096;-81
2021/12/17 16:38:39;;;;;;;31.43;10.07;;;;;;;3.29;78.25;100079.03;2128398;83;21020;-83
2021/12/17 16:41:40;;;;;;;44.47;14.53;;;;;;;3.28;78.33;100083.70;2128431;83;20988;-80
2021/12/17 16:45:03;;;;;;;27.80;8.77;;;;;;;3.30;78.39;100076.55;2127997;84;21052;-77
2021/12/17 16:47:45;;;;;;;37.57;14.17;;;;;;;3.31;78.15;100090.34;2123384;84;21408;-81
2021/12/17 16:50:46;;;;;;;27.67;11.47;;;;;;;3.29;78.21;100085.09;2128035;84;21036;-80
2021/12/17 16:53:49;;;;;;;32.80;12.80;;;;;;;3.30;78.24;100090.74;2128275;84;21404;-81
2021/12/17 16:56:50;;;;;;;45.67;12.03;;;;;;;3.29;78.15;100091.94;2128371;83;20968;-80
2021/12/17 16:59:50;;;;;;;26.23;9.97;;;;;;;3.28;78.30;100102.66;2128013;84;21009;-81
2021/12/17 17:02:53;;;;;;;27.00;11.27;;;;;;;3.29;78.32;100090.65;2128513;84;20969;-80
2021/12/17 17:05:53;;;;;;;31.13;10.80;;;;;;;3.29;78.31;100090.65;2128258;84;21364;-82
2021/12/17 17:09:00;;;;;;;31.70;12.47;;;;;;;3.28;78.41;100093.63;2128099;83;20988;-81
2021/12/17 17:12:04;;;;;;;31.53;11.47;;;;;;;3.29;78.25;100091.94;2122195;84;21132;-80
2021/12/17 17:15:04;;;;;;;31.40;9.57;;;;;;;3.28;78.18;100088.87;2118201;84;21399;-80
2021/12/17 17:18:05;;;;;;;22.93;9.37;;;;;;;3.29;78.09;100096.70;2117816;84;20984;-81